Flight Track Log - Related Links

Times and Time Zones

All times are in EDT time to prevent confusion due to time zone crossing. See the GRY3 flight status page for this flight to view local times or setup timezone preferences in your user account.

Time Position Orientation Groundspeed Altitude Reporting Facility
EDT Latitude Longitude Course Direction KTS MPH feet Rate Location/Type
Tue 09:55:18 PM 41.2128 -73.5881 North 193 222 7,100  Level Boston Center
Tue 09:56:18 PM 41.2650 -73.5833 North 199 229 8,400 942 Climbing Boston Center
Tue 09:57:19 PM 41.3281 -73.5431 25° Northeast 209 241 9,000 305 Climbing Boston Center
Tue 09:58:16 PM 41.3903 -73.5550 352° North 230 265 9,000  Level Boston Center
Tue 09:59:18 PM 41.4653 -73.5564 359° North 246 283 9,000  Level Boston Center
Tue 10:00:18 PM 41.5278 -73.5714 350° North 252 290 9,000  Level Boston Center
Tue 10:01:17 PM 41.6047 -73.5867 352° North 247 284 9,000  Level Boston Center
Tue 10:02:18 PM 41.6650 -73.5961 353° North 247 284 9,000  Level Boston Center
Tue 10:03:16 PM 41.7400 -73.6114 351° North 247 284 9,000  Level Boston Center
Tue 10:04:17 PM 41.7856 -73.6206 351° North 241 277 9,000  Level Boston Center
Tue 10:05:00 PM 41.8503 -73.6331 352° North 238 274 9,000  Level Boston Center
Tue 10:05:32 PM 41.8856 -73.6392 353° North 235 270 9,000  Level Boston Center
Tue 10:06:33 PM 41.9519 -73.6544 350° North 233 268 9,000  Level Boston Center
Tue 10:07:18 PM 41.9978 -73.6664 349° North 235 270 9,000  Level Boston Center
Tue 10:08:16 PM 42.0561 -73.6789 351° North 235 270 9,000  Level Boston Center
Tue 10:09:17 PM 42.1203 -73.6969 348° North 235 270 9,000 -148 Level Boston Center
Tue 10:10:18 PM 42.1911 -73.7094 353° North 235 270 8,700 -857 Descending Boston Center
Tue 10:11:16 PM 42.2514 -73.7247 349° North 243 280 7,300 -1,548 Descending Boston Center
Tue 10:12:22 PM 42.3219 -73.7431 349° North 208 239 5,500 -1,426 Descending Boston Center
Tue 10:13:18 PM 42.3719 -73.7525 352° North 216 249 4,400 -1,128 Descending Boston Center
Tue 10:14:19 PM 42.4386 -73.7681 350° North 222 255 3,300 -661 Descending Boston Center
Tue 10:15:16 PM 42.4883 -73.7803 350° North 216 249 3,100 -103 Descending Boston Center
Tue 10:16:16 PM 42.5467 -73.7956 349° North 198 228 3,100  Level Boston Center
Tue 10:17:16 PM 42.5925 -73.7967 359° North 192 221 3,100 -344 Level Boston Center
Tue 10:18:18 PM 42.6297 -73.8003 356° North 169 194 2,400 -687 Descending Boston Center
Tue 10:19:27 PM 42.6714 -73.8039 356° North 116 133 1,600 -647 Descending Boston Center
Tue 10:20:37 PM 42.7111 -73.8078 356° North 125 144 900 -600 Descending Boston Center
Tue 10:22:00 PM 42.7333 -73.8000 353° North  Level FlightAware Approximate
Tue 10:29:00 PM 42.7491 -73.8020 353° North  Level Estimated
Tue 10:30:00 PM 42.7491 -73.8020 353° North  Level Estimated

Login

Don't have an account? Register now (free) for customized features, flight alerts, and more!